createdAt,value
2022-12-13T00:03:22.932Z,100
2022-12-13T00:08:21.263Z,100
2022-12-13T00:13:19.597Z,100
2022-12-13T00:18:17.899Z,100
2022-12-13T00:23:15.977Z,100
2022-12-13T00:28:14.174Z,100
2022-12-13T00:33:12.145Z,100
2022-12-13T00:38:10.287Z,100
2022-12-13T00:43:08.116Z,100
2022-12-13T00:48:06.275Z,100
2022-12-13T00:53:04.423Z,100
2022-12-13T00:58:02.452Z,100
2022-12-13T01:03:00.726Z,100
2022-12-13T01:07:58.779Z,100
2022-12-13T01:12:56.821Z,100
2022-12-13T01:17:54.833Z,100
2022-12-13T01:22:53.034Z,100
2022-12-13T01:27:51.097Z,100
2022-12-13T01:32:49.167Z,100
2022-12-13T01:37:46.768Z,100
2022-12-13T01:42:44.682Z,100
2022-12-13T01:47:42.578Z,100
2022-12-13T01:52:40.665Z,100
2022-12-13T01:57:42.159Z,100
2022-12-13T02:02:36.846Z,100
2022-12-13T02:07:34.893Z,100
2022-12-13T02:12:33.101Z,100
2022-12-13T02:17:31.104Z,100
2022-12-13T02:22:29.369Z,100
2022-12-13T02:27:30.536Z,100
2022-12-13T02:32:25.703Z,100
2022-12-13T02:37:23.711Z,100
2022-12-13T02:42:22.277Z,100
2022-12-13T02:47:21.921Z,100
2022-12-13T02:52:22.055Z,100
2022-12-13T02:57:15.955Z,100
2022-12-13T03:02:14.059Z,100
2022-12-13T03:07:12.376Z,100
2022-12-13T03:12:10.605Z,100
2022-12-13T03:17:08.532Z,100
2022-12-13T03:22:06.619Z,100
2022-12-13T03:27:04.751Z,100
2022-12-13T03:32:02.873Z,100
2022-12-13T03:37:01.145Z,100
2022-12-13T03:41:59.143Z,100
2022-12-13T03:46:57.352Z,100
2022-12-13T03:51:55.828Z,100
2022-12-13T03:56:53.939Z,100
2022-12-13T04:01:52.036Z,100
2022-12-13T04:06:49.983Z,100
2022-12-13T04:11:47.908Z,100
2022-12-13T04:16:45.958Z,100
2022-12-13T04:21:44.054Z,100
2022-12-13T04:26:42.196Z,100
2022-12-13T04:31:40.310Z,100
2022-12-13T04:36:38.288Z,100
2022-12-13T04:41:36.429Z,100
2022-12-13T04:46:34.580Z,100
2022-12-13T04:51:32.542Z,100
2022-12-13T04:56:34.208Z,100
2022-12-13T05:01:31.382Z,100
2022-12-13T05:06:29.567Z,100
2022-12-13T05:11:27.524Z,100
2022-12-13T05:16:25.976Z,100
2022-12-13T05:21:24.110Z,100
2022-12-13T05:26:22.397Z,100
2022-12-13T05:31:22.749Z,100
2022-12-13T05:36:18.670Z,100
2022-12-13T05:41:16.848Z,100
2022-12-13T05:46:15.188Z,100
2022-12-13T05:51:13.175Z,100
2022-12-13T05:56:11.774Z,100
2022-12-13T06:01:10.050Z,100
2022-12-13T06:06:08.326Z,100
2022-12-13T06:11:09.759Z,100
2022-12-13T06:16:04.713Z,100
2022-12-13T06:21:02.846Z,100
2022-12-13T06:26:01.064Z,100
2022-12-13T06:30:59.413Z,100
2022-12-13T06:35:57.680Z,100
2022-12-13T06:40:56.196Z,100
2022-12-13T06:45:54.948Z,100
2022-12-13T06:50:53.446Z,100
2022-12-13T06:55:51.939Z,100
2022-12-13T07:00:50.301Z,100
2022-12-13T07:05:51.298Z,100
2022-12-13T07:10:47.686Z,100
2022-12-13T07:15:46.246Z,100
2022-12-13T07:20:45.010Z,100
2022-12-13T07:25:43.728Z,100
2022-12-13T07:30:42.540Z,100
2022-12-13T07:35:41.282Z,100
2022-12-13T07:40:41.527Z,93.9
2022-12-13T07:45:40.216Z,91.2
2022-12-13T07:50:39.637Z,87.5
2022-12-13T07:55:37.292Z,89.6
2022-12-13T08:00:35.038Z,91.1
2022-12-13T08:05:38.447Z,92.4
2022-12-13T08:10:32.072Z,91.6
2022-12-13T08:15:30.612Z,90.1
2022-12-13T08:20:28.551Z,91.7
2022-12-13T08:25:26.421Z,93.5
2022-12-13T08:30:24.840Z,93.2
2022-12-13T08:35:23.447Z,92.1
2022-12-13T08:40:21.651Z,92
2022-12-13T08:45:20.191Z,91.4
2022-12-13T08:50:19.994Z,87.4
2022-12-13T08:55:25.066Z,81.1
2022-12-13T09:00:19.173Z,78.2
2022-12-13T09:05:32.732Z,73.4
2022-12-13T09:10:26.206Z,68.3
2022-12-13T09:15:21.731Z,65.2
2022-12-13T09:20:28.420Z,62
2022-12-13T09:25:23.895Z,59.8
2022-12-13T09:30:14.324Z,57.1
2022-12-13T09:35:15.068Z,51.7
2022-12-13T09:40:15.853Z,50.1
2022-12-13T09:45:22.093Z,53
2022-12-13T09:50:06.388Z,56.3
2022-12-13T09:55:06.620Z,58.6
2022-12-13T10:00:01.869Z,56.2
2022-12-13T10:05:00.688Z,56.7
2022-12-13T10:09:59.253Z,53.2
2022-12-13T10:15:00.763Z,46.6
2022-12-13T10:20:01.353Z,43.2
2022-12-13T10:25:00.242Z,42.3
2022-12-13T10:29:58.931Z,41.9
2022-12-13T10:34:56.511Z,41.9
2022-12-13T10:39:54.243Z,42
2022-12-13T10:44:51.905Z,42.4
2022-12-13T10:49:50.065Z,42.7
2022-12-13T10:54:48.868Z,41.8
2022-12-13T10:59:42.105Z,48
2022-12-13T11:04:40.213Z,48.9
2022-12-13T11:09:38.575Z,51.8
2022-12-13T11:14:36.530Z,54.1
2022-12-13T11:19:31.044Z,57.6
2022-12-13T11:24:28.210Z,59.8
2022-12-13T11:29:25.935Z,61.5
2022-12-13T11:34:23.808Z,61.6
2022-12-13T11:39:21.860Z,62.8
2022-12-13T11:44:19.475Z,64.7
2022-12-13T11:49:16.889Z,67.2
2022-12-13T11:54:14.361Z,70.6
2022-12-13T11:59:20.477Z,72
2022-12-13T12:04:10.088Z,74.6
2022-12-13T12:09:07.955Z,77.4
2022-12-13T12:14:06.142Z,78.3
2022-12-13T12:19:04.367Z,79.5
2022-12-13T12:24:02.796Z,80.8
2022-12-13T12:29:01.142Z,82.2
2022-12-13T12:33:59.427Z,82.1
2022-12-13T12:38:57.595Z,83.6
2022-12-13T12:43:55.759Z,82.9
2022-12-13T12:49:01.585Z,84.6
2022-12-13T12:53:52.314Z,82.6
2022-12-13T12:58:51.525Z,80.6
2022-12-13T13:03:50.182Z,80.9
2022-12-13T13:08:53.348Z,81.6
2022-12-13T13:13:47.041Z,81.2
2022-12-13T13:18:44.523Z,83
2022-12-13T13:23:43.038Z,84.2
2022-12-13T13:28:41.599Z,85.4
2022-12-13T13:33:38.977Z,89.2
2022-12-13T13:38:36.838Z,91.3
2022-12-13T13:43:35.278Z,91.7
2022-12-13T13:48:32.788Z,95.4
2022-12-13T13:53:30.772Z,96.4
2022-12-13T13:58:28.867Z,97
2022-12-13T14:03:33.981Z,98.1
2022-12-13T14:08:24.904Z,99.6
2022-12-13T14:13:23.741Z,99.3
2022-12-13T14:18:21.954Z,99.7
2022-12-13T14:23:21.443Z,100
2022-12-13T14:28:17.189Z,100
2022-12-13T14:33:15.062Z,100
2022-12-13T14:38:12.851Z,100
2022-12-13T14:43:10.663Z,100
2022-12-13T14:48:08.754Z,100
2022-12-13T14:53:06.673Z,100
2022-12-13T14:58:05.054Z,100
2022-12-13T15:03:03.292Z,100
2022-12-13T15:08:10.587Z,100
2022-12-13T15:12:59.942Z,100
2022-12-13T15:17:57.914Z,100
2022-12-13T15:22:56.860Z,100
2022-12-13T15:27:55.031Z,100
2022-12-13T15:32:53.353Z,100
2022-12-13T15:37:51.689Z,100
2022-12-13T15:42:50.135Z,100
2022-12-13T15:47:48.202Z,100
2022-12-13T15:52:47.883Z,100
2022-12-13T15:57:44.473Z,100
2022-12-13T16:02:42.746Z,100
2022-12-13T16:07:40.996Z,100
2022-12-13T16:12:39.145Z,100
2022-12-13T16:17:37.208Z,100
2022-12-13T16:22:35.322Z,100
2022-12-13T16:27:33.357Z,100
2022-12-13T16:32:36.090Z,100
2022-12-13T16:37:29.631Z,100
2022-12-13T16:42:28.089Z,100
2022-12-13T16:47:36.584Z,100
2022-12-13T16:52:24.778Z,100
2022-12-13T16:57:23.387Z,100
2022-12-13T17:02:21.791Z,100
2022-12-13T17:07:19.980Z,100
2022-12-13T17:12:18.383Z,100
2022-12-13T17:17:17.801Z,100
2022-12-13T17:22:15.029Z,100
2022-12-13T17:27:13.583Z,100
2022-12-13T17:32:11.845Z,100
2022-12-13T17:37:10.916Z,100
2022-12-13T17:42:08.863Z,100
2022-12-13T17:47:07.196Z,100
2022-12-13T17:52:05.632Z,100
2022-12-13T17:57:04.076Z,100
2022-12-13T18:02:02.516Z,100
2022-12-13T18:07:00.861Z,100
2022-12-13T18:11:59.213Z,100
2022-12-13T18:16:57.560Z,100
2022-12-13T18:21:56.151Z,100
2022-12-13T18:26:54.762Z,100
2022-12-13T18:31:53.188Z,100
2022-12-13T18:36:52.053Z,100
2022-12-13T18:41:50.500Z,100
2022-12-13T18:46:49.042Z,100
2022-12-13T18:51:47.172Z,100
2022-12-13T18:56:45.362Z,100
2022-12-13T19:01:43.741Z,100
2022-12-13T19:06:42.099Z,100
2022-12-13T19:11:40.342Z,100
2022-12-13T19:16:38.594Z,100
2022-12-13T19:21:36.846Z,100
2022-12-13T19:26:34.949Z,100
2022-12-13T19:31:33.249Z,100
2022-12-13T19:36:31.630Z,100
2022-12-13T19:41:29.865Z,100
2022-12-13T19:46:28.375Z,100
2022-12-13T19:51:26.592Z,100
2022-12-13T19:56:24.847Z,100
2022-12-13T20:01:23.228Z,100
2022-12-13T20:06:21.441Z,100
2022-12-13T20:11:20.082Z,100
2022-12-13T20:16:18.474Z,100
2022-12-13T20:21:16.590Z,100
2022-12-13T20:26:14.767Z,100
2022-12-13T20:31:13.014Z,100
2022-12-13T20:36:27.474Z,100
2022-12-13T20:41:09.650Z,100
2022-12-13T20:46:08.002Z,100
2022-12-13T20:51:06.188Z,100
2022-12-13T20:56:04.599Z,100
2022-12-13T21:01:03.362Z,100
2022-12-13T21:06:01.418Z,100
2022-12-13T21:11:04.997Z,100
2022-12-13T21:15:57.883Z,100
2022-12-13T21:20:56.030Z,100
2022-12-13T21:25:54.189Z,100
2022-12-13T21:30:52.379Z,100
2022-12-13T21:35:50.556Z,100
2022-12-13T21:40:48.970Z,100
2022-12-13T21:45:47.263Z,100
2022-12-13T21:50:45.473Z,100
2022-12-13T21:55:43.701Z,100
2022-12-13T22:00:42.041Z,100
2022-12-13T22:05:40.213Z,100
2022-12-13T22:10:38.560Z,100
2022-12-13T22:15:36.803Z,100
2022-12-13T22:20:35.508Z,100
2022-12-13T22:25:33.657Z,100
2022-12-13T22:30:31.968Z,100
2022-12-13T22:35:30.066Z,100
2022-12-13T22:40:28.244Z,100
2022-12-13T22:45:26.486Z,100
2022-12-13T22:50:24.550Z,100
2022-12-13T22:55:22.608Z,100
2022-12-13T23:00:20.769Z,100
2022-12-13T23:05:19.049Z,100
2022-12-13T23:10:17.398Z,100
2022-12-13T23:15:15.580Z,100
2022-12-13T23:20:14.056Z,100
2022-12-13T23:25:12.033Z,100
2022-12-13T23:30:10.162Z,100
2022-12-13T23:35:08.309Z,100
2022-12-13T23:40:06.561Z,100
2022-12-13T23:45:04.783Z,100
2022-12-13T23:50:03.084Z,100
2022-12-13T23:55:01.114Z,100
2022-12-13T23:59:59.350Z,100
